createdAt,value
2022-08-05T00:00:17.465Z,92.60
2022-08-05T00:02:50.565Z,92.50
2022-08-05T00:06:02.583Z,92.50
2022-08-05T00:08:19.978Z,92.40
2022-08-05T00:11:01.606Z,92.40
2022-08-05T00:13:38.516Z,92.10
2022-08-05T00:16:13.306Z,92.00
2022-08-05T00:18:48.047Z,92.10
2022-08-05T00:21:17.655Z,92.20
2022-08-05T00:24:05.110Z,92.00
2022-08-05T00:26:34.910Z,92.30
2022-08-05T00:29:02.328Z,92.30
2022-08-05T00:31:53.786Z,92.60
2022-08-05T00:34:55.195Z,92.30
2022-08-05T00:37:10.631Z,92.30
2022-08-05T00:39:44.177Z,92.40
2022-08-05T00:42:12.085Z,92.30
2022-08-05T00:45:00.299Z,92.30
2022-08-05T00:47:53.458Z,92.20
2022-08-05T00:50:15.846Z,92.40
2022-08-05T00:52:45.296Z,92.50
2022-08-05T00:55:14.930Z,92.50
2022-08-05T00:57:58.356Z,92.50
2022-08-05T01:00:28.792Z,92.90
2022-08-05T01:02:57.467Z,92.90
2022-08-05T01:05:27.479Z,93.20
2022-08-05T01:08:41.409Z,93.40
2022-08-05T01:10:51.498Z,93.40
2022-08-05T01:13:59.731Z,93.50
2022-08-05T01:16:34.039Z,93.60
2022-08-05T01:19:56.229Z,93.90
2022-08-05T01:22:24.386Z,93.90
2022-08-05T01:25:09.953Z,93.90
2022-08-05T01:28:00.505Z,93.90
2022-08-05T01:30:34.502Z,94.00
2022-08-05T01:33:09.209Z,94.20
2022-08-05T01:35:50.635Z,94.20
2022-08-05T01:38:27.026Z,94.40
2022-08-05T01:41:01.367Z,94.70
2022-08-05T01:43:32.144Z,94.80
2022-08-05T01:46:07.262Z,95.10
2022-08-05T01:48:46.200Z,95.10
2022-08-05T01:51:18.926Z,95.10
2022-08-05T01:53:57.624Z,95.20
2022-08-05T01:58:11.253Z,95.40
2022-08-05T01:59:27.965Z,95.30
2022-08-05T02:02:00.532Z,95.40
2022-08-05T02:04:32.700Z,95.40
2022-08-05T02:07:03.529Z,95.60
2022-08-05T02:09:33.603Z,95.80
2022-08-05T02:12:25.771Z,95.50
2022-08-05T02:15:03.424Z,95.40
2022-08-05T02:18:28.577Z,95.40
2022-08-05T02:20:27.852Z,95.70
2022-08-05T02:23:03.070Z,95.40
2022-08-05T02:25:49.045Z,95.10
2022-08-05T02:28:29.138Z,95.10
2022-08-05T02:31:14.437Z,95.20
2022-08-05T02:33:59.621Z,95.10
2022-08-05T02:36:31.589Z,95.10
2022-08-05T02:39:01.734Z,95.20
2022-08-05T02:41:36.344Z,95.10
2022-08-05T02:44:20.727Z,95.20
2022-08-05T02:46:58.653Z,95.10
2022-08-05T02:49:42.290Z,95.20
2022-08-05T02:52:29.354Z,95.20
2022-08-05T02:55:02.071Z,95.30
2022-08-05T02:58:10.668Z,95.40
2022-08-05T03:00:22.478Z,95.30
2022-08-05T03:02:53.646Z,95.40
2022-08-05T03:05:21.877Z,95.50
2022-08-05T03:08:11.028Z,95.30
2022-08-05T03:10:38.854Z,95.20
2022-08-05T03:13:17.091Z,95.50
2022-08-05T03:15:46.424Z,95.40
2022-08-05T03:18:14.216Z,95.30
2022-08-05T03:20:48.876Z,95.50
2022-08-05T03:23:18.049Z,95.30
2022-08-05T03:26:05.094Z,95.40
2022-08-05T03:28:33.444Z,95.50
2022-08-05T03:31:02.525Z,95.70
2022-08-05T03:33:32.267Z,95.60
2022-08-05T03:36:30.215Z,95.70
2022-08-05T03:38:58.323Z,95.60
2022-08-05T03:41:25.929Z,95.80
2022-08-05T03:44:11.163Z,95.80
2022-08-05T03:46:39.391Z,96.00
2022-08-05T03:49:06.817Z,96.10
2022-08-05T03:52:37.259Z,96.10
2022-08-05T03:55:52.466Z,96.20
2022-08-05T03:57:41.484Z,96.30
2022-08-05T04:00:15.628Z,96.30
2022-08-05T04:02:57.991Z,96.30
2022-08-05T04:05:33.787Z,96.40
2022-08-05T04:08:14.678Z,96.60
2022-08-05T04:10:58.543Z,96.50
2022-08-05T04:13:27.864Z,96.40
2022-08-05T04:16:14.556Z,96.30
2022-08-05T04:18:41.982Z,96.50
2022-08-05T04:21:19.923Z,96.10
2022-08-05T04:24:06.776Z,96.50
2022-08-05T04:26:36.713Z,96.30
2022-08-05T04:29:07.257Z,96.10
2022-08-05T04:31:38.767Z,96.00
2022-08-05T04:34:31.602Z,95.90
2022-08-05T04:36:55.034Z,96.00
2022-08-05T04:39:22.759Z,95.90
2022-08-05T04:41:50.980Z,96.00
2022-08-05T04:44:21.474Z,95.90
2022-08-05T04:46:58.671Z,95.80
2022-08-05T04:50:00.939Z,95.80
2022-08-05T04:52:15.988Z,95.80
2022-08-05T04:54:43.415Z,95.80
2022-08-05T04:57:10.907Z,95.80
2022-08-05T04:59:40.780Z,96.00
2022-08-05T05:02:36.282Z,95.90
2022-08-05T05:05:01.768Z,95.90
2022-08-05T05:07:32.849Z,96.00
2022-08-05T05:10:06.215Z,96.10
2022-08-05T05:12:33.962Z,96.10
2022-08-05T05:15:05.729Z,96.10
2022-08-05T05:17:57.008Z,96.20
2022-08-05T05:20:28.360Z,96.20
2022-08-05T05:23:08.261Z,96.30
2022-08-05T05:25:47.848Z,96.40
2022-08-05T05:28:15.337Z,96.50
2022-08-05T05:30:43.196Z,96.50
2022-08-05T05:33:17.702Z,96.70
2022-08-05T05:35:50.960Z,97.10
2022-08-05T05:38:22.851Z,99.00
2022-08-05T05:40:56.915Z,97.10
2022-08-05T05:43:54.828Z,98.50
2022-08-05T05:46:17.231Z,97.70
2022-08-05T05:48:48.131Z,99.20
2022-08-05T05:51:27.761Z,98.50
2022-08-05T05:53:59.638Z,98.40
2022-08-05T05:56:33.396Z,98.70
2022-08-05T05:59:07.367Z,98.30
2022-08-05T06:01:38.936Z,98.20
2022-08-05T06:04:11.436Z,98.20
2022-08-05T06:06:42.899Z,98.10
2022-08-05T06:09:17.035Z,98.30
2022-08-05T06:12:01.174Z,98.10
2022-08-05T06:14:34.617Z,98.20
2022-08-05T06:17:22.109Z,98.10
2022-08-05T06:19:57.103Z,97.80
2022-08-05T06:22:30.111Z,97.70
2022-08-05T06:25:25.118Z,97.50
2022-08-05T06:28:09.531Z,97.30
2022-08-05T06:30:36.875Z,97.20
2022-08-05T06:33:04.319Z,97.20
2022-08-05T06:36:03.790Z,97.10
2022-08-05T06:38:35.661Z,96.70
2022-08-05T06:41:04.897Z,96.50
2022-08-05T06:43:57.576Z,96.80
2022-08-05T06:46:19.745Z,96.60
2022-08-05T06:48:55.593Z,96.60
2022-08-05T06:51:30.151Z,96.60
2022-08-05T06:54:03.169Z,96.40
2022-08-05T06:56:34.281Z,96.50
2022-08-05T06:59:08.435Z,96.30
2022-08-05T07:01:41.490Z,96.40
2022-08-05T07:04:10.157Z,96.40
2022-08-05T07:06:37.715Z,96.40
2022-08-05T07:09:05.591Z,96.40
2022-08-05T07:11:37.351Z,96.50
2022-08-05T07:14:29.649Z,96.70
2022-08-05T07:18:02.423Z,96.60
2022-08-05T07:22:38.184Z,96.60
2022-08-05T07:25:22.433Z,96.40
2022-08-05T07:27:57.161Z,96.00
2022-08-05T07:30:39.109Z,96.00
2022-08-05T07:33:16.388Z,96.00
2022-08-05T07:36:04.656Z,95.60
2022-08-05T07:38:43.663Z,95.40
2022-08-05T07:42:07.651Z,95.50
2022-08-05T07:44:18.611Z,95.60
2022-08-05T07:46:49.669Z,95.90
2022-08-05T07:49:18.646Z,95.80
2022-08-05T07:51:53.011Z,95.70
2022-08-05T07:54:31.082Z,95.70
2022-08-05T07:57:22.456Z,95.40
2022-08-05T07:59:49.990Z,95.50
2022-08-05T08:02:18.156Z,95.70
2022-08-05T08:04:47.404Z,95.40
2022-08-05T08:07:15.415Z,95.30
2022-08-05T08:09:43.638Z,95.20
2022-08-05T08:12:36.931Z,94.90
2022-08-05T08:15:02.605Z,94.60
2022-08-05T08:17:32.583Z,94.90
2022-08-05T08:20:21.831Z,94.90
2022-08-05T08:22:52.231Z,95.30
2022-08-05T08:25:26.748Z,94.90
2022-08-05T08:28:07.479Z,94.70
2022-08-05T08:30:47.375Z,94.60
2022-08-05T08:33:15.522Z,94.70
2022-08-05T08:35:53.801Z,94.90
2022-08-05T08:38:35.688Z,93.90
2022-08-05T08:41:08.602Z,93.60
2022-08-05T08:45:19.016Z,93.80
2022-08-05T08:46:30.533Z,93.30
2022-08-05T08:49:08.309Z,93.00
2022-08-05T08:52:24.148Z,92.80
2022-08-05T08:54:53.524Z,92.70
2022-08-05T08:57:22.666Z,92.90
2022-08-05T08:59:50.956Z,92.40
2022-08-05T09:02:20.701Z,92.20
2022-08-05T09:05:16.694Z,91.90
2022-08-05T09:07:40.095Z,91.80
2022-08-05T09:10:26.982Z,91.40
2022-08-05T09:12:57.073Z,91.90
2022-08-05T09:15:32.659Z,92.00
2022-08-05T09:18:07.594Z,91.20
2022-08-05T09:20:41.721Z,91.60
2022-08-05T09:23:19.405Z,91.50
2022-08-05T09:26:20.540Z,91.10
2022-08-05T09:28:49.880Z,91.10
2022-08-05T09:31:44.060Z,91.10
2022-08-05T09:34:07.236Z,91.50
2022-08-05T09:36:56.156Z,91.00
2022-08-05T09:39:42.017Z,91.10
2022-08-05T09:42:23.040Z,91.10
2022-08-05T09:44:56.529Z,91.30
2022-08-05T09:47:36.376Z,91.00
2022-08-05T09:50:38.021Z,91.40
2022-08-05T09:53:06.397Z,90.80
2022-08-05T09:55:56.108Z,90.30
2022-08-05T09:58:25.220Z,90.90
2022-08-05T10:01:00.644Z,88.70
2022-08-05T10:03:51.820Z,89.20
2022-08-05T10:06:20.751Z,90.30
2022-08-05T10:08:50.349Z,90.10
2022-08-05T10:11:21.690Z,90.60
2022-08-05T10:13:54.706Z,90.40
2022-08-05T10:16:37.736Z,89.40
2022-08-05T10:19:11.763Z,89.30
2022-08-05T10:21:40.996Z,89.30
2022-08-05T10:24:16.079Z,90.00
2022-08-05T10:26:48.889Z,90.00
2022-08-05T10:29:24.188Z,88.80
2022-08-05T10:32:53.684Z,87.80
2022-08-05T10:35:00.986Z,88.40
2022-08-05T10:37:40.311Z,89.80
2022-08-05T10:40:29.911Z,89.50
2022-08-05T10:43:07.447Z,89.00
2022-08-05T10:45:42.083Z,89.60
2022-08-05T10:48:34.501Z,89.90
2022-08-05T10:51:22.139Z,90.10
2022-08-05T10:53:56.268Z,90.00
2022-08-05T10:56:29.401Z,87.50
2022-08-05T10:59:12.166Z,86.20
2022-08-05T11:01:54.883Z,87.00
2022-08-05T11:04:42.450Z,87.20
2022-08-05T11:07:12.044Z,87.00
2022-08-05T11:09:49.963Z,87.00
2022-08-05T11:12:38.293Z,87.40
2022-08-05T11:15:19.407Z,86.20
2022-08-05T11:18:00.049Z,86.00
2022-08-05T11:20:41.474Z,86.20
2022-08-05T11:24:03.091Z,86.60
2022-08-05T11:26:32.487Z,86.20
2022-08-05T11:29:12.996Z,85.60
2022-08-05T11:31:58.906Z,84.70
2022-08-05T11:34:51.665Z,84.70
2022-08-05T11:38:29.105Z,85.60
2022-08-05T11:41:35.040Z,85.50
2022-08-05T11:44:05.094Z,86.00
2022-08-05T11:46:58.276Z,85.70
2022-08-05T11:49:33.745Z,85.90
2022-08-05T11:52:11.186Z,85.20
2022-08-05T11:54:41.604Z,84.40
2022-08-05T11:57:24.234Z,84.30
2022-08-05T11:59:54.231Z,83.60
2022-08-05T12:02:31.701Z,83.30
2022-08-05T12:05:07.279Z,83.00
2022-08-05T12:08:07.258Z,82.30
2022-08-05T12:10:43.018Z,82.30
2022-08-05T12:13:47.445Z,81.20
2022-08-05T12:16:14.986Z,80.40
2022-08-05T12:18:49.367Z,80.20
2022-08-05T12:21:30.202Z,80.20
2022-08-05T12:23:57.861Z,78.40
2022-08-05T12:26:48.513Z,78.50
2022-08-05T12:29:23.138Z,79.30
2022-08-05T12:32:02.087Z,79.80
2022-08-05T12:34:37.092Z,79.30
2022-08-05T12:37:26.686Z,79.30
2022-08-05T12:40:03.065Z,78.90
2022-08-05T12:42:31.693Z,78.30
2022-08-05T12:45:09.393Z,77.40
2022-08-05T12:47:38.420Z,76.40
2022-08-05T12:50:17.684Z,76.40
2022-08-05T12:52:59.473Z,77.30
2022-08-05T12:55:32.484Z,77.50
2022-08-05T12:58:38.393Z,78.00
2022-08-05T13:02:00.689Z,77.50
2022-08-05T13:03:42.915Z,78.40
2022-08-05T13:06:16.735Z,78.70
2022-08-05T13:08:52.316Z,78.20
2022-08-05T13:12:01.539Z,77.00
2022-08-05T13:14:36.250Z,78.30
2022-08-05T13:17:10.919Z,78.80
2022-08-05T13:19:52.105Z,79.30
2022-08-05T13:22:29.130Z,80.10
2022-08-05T13:25:00.863Z,81.20
2022-08-05T13:27:38.416Z,79.60
2022-08-05T13:30:33.513Z,78.90
2022-08-05T13:32:56.749Z,77.00
2022-08-05T13:35:42.454Z,76.50
2022-08-05T13:38:20.021Z,76.30
2022-08-05T13:40:56.102Z,76.00
2022-08-05T13:43:23.523Z,74.20
2022-08-05T13:46:11.729Z,74.80
2022-08-05T13:48:57.193Z,74.70
2022-08-05T13:51:40.193Z,73.90
2022-08-05T13:54:12.311Z,73.20
2022-08-05T13:56:50.889Z,73.20
2022-08-05T13:59:24.429Z,73.80
2022-08-05T14:01:59.429Z,74.60
2022-08-05T14:04:51.297Z,73.90
2022-08-05T14:07:55.550Z,75.00
2022-08-05T14:10:13.829Z,73.20
2022-08-05T14:12:48.736Z,72.90
2022-08-05T14:16:08.431Z,72.50
2022-08-05T14:18:05.615Z,73.00
2022-08-05T14:20:33.283Z,73.50
2022-08-05T14:23:01.535Z,73.10
2022-08-05T14:25:30.405Z,71.50
2022-08-05T14:27:58.403Z,71.10
2022-08-05T14:30:28.122Z,72.40
2022-08-05T14:32:56.853Z,71.80
2022-08-05T14:35:49.904Z,73.10
2022-08-05T14:38:31.987Z,74.60
2022-08-05T14:41:00.560Z,75.10
2022-08-05T14:43:53.948Z,75.90
2022-08-05T14:46:15.474Z,80.10
2022-08-05T14:48:43.333Z,76.20
2022-08-05T14:51:18.342Z,75.90
2022-08-05T14:54:26.161Z,76.40
2022-08-05T14:56:38.089Z,79.50
2022-08-05T14:59:11.626Z,78.70
2022-08-05T15:01:49.034Z,77.50
2022-08-05T15:04:20.685Z,76.80
2022-08-05T15:06:52.985Z,77.00
2022-08-05T15:09:51.355Z,78.00
2022-08-05T15:12:11.540Z,76.60
2022-08-05T15:14:50.064Z,76.70
2022-08-05T15:17:46.257Z,77.40
2022-08-05T15:20:18.657Z,76.50
2022-08-05T15:22:52.158Z,76.10
2022-08-05T15:25:23.559Z,75.90
2022-08-05T15:28:14.370Z,75.70
2022-08-05T15:30:46.759Z,76.70
2022-08-05T15:34:04.705Z,76.80
2022-08-05T15:36:16.824Z,77.50
2022-08-05T15:40:41.204Z,77.10
2022-08-05T15:41:57.977Z,77.10
2022-08-05T15:44:28.105Z,77.80
2022-08-05T15:46:59.265Z,77.30
2022-08-05T15:49:47.896Z,76.90
2022-08-05T15:52:29.196Z,76.40
2022-08-05T15:55:02.113Z,76.20
2022-08-05T15:57:33.106Z,76.10
2022-08-05T16:00:06.490Z,76.00
2022-08-05T16:02:34.160Z,75.90
2022-08-05T16:05:02.114Z,76.30
2022-08-05T16:07:29.840Z,75.40
2022-08-05T16:09:57.510Z,75.10
2022-08-05T16:12:25.311Z,75.80
2022-08-05T16:14:53.003Z,74.90
2022-08-05T16:17:20.437Z,74.90
2022-08-05T16:20:05.264Z,75.30
2022-08-05T16:22:35.912Z,76.00
2022-08-05T16:25:09.550Z,74.90
2022-08-05T16:28:00.902Z,75.70
2022-08-05T16:30:28.751Z,75.10
2022-08-05T16:32:59.593Z,74.90
2022-08-05T16:35:32.197Z,74.80
2022-08-05T16:38:15.127Z,75.10
2022-08-05T16:40:55.579Z,74.60
2022-08-05T16:43:31.304Z,75.70
2022-08-05T16:46:04.345Z,74.90
2022-08-05T16:48:37.835Z,75.30
2022-08-05T16:51:08.945Z,75.30
2022-08-05T16:54:06.050Z,75.30
2022-08-05T16:56:29.498Z,75.40
2022-08-05T16:59:00.889Z,75.50
2022-08-05T17:01:53.068Z,75.30
2022-08-05T17:04:18.690Z,75.80
2022-08-05T17:06:46.402Z,75.50
2022-08-05T17:09:21.547Z,75.60
2022-08-05T17:11:55.938Z,76.80
2022-08-05T17:14:37.022Z,76.20
2022-08-05T17:17:09.279Z,75.90
2022-08-05T17:19:45.367Z,75.80
2022-08-05T17:22:17.856Z,76.00
2022-08-05T17:24:58.649Z,75.60
2022-08-05T17:27:33.479Z,75.80
2022-08-05T17:30:04.733Z,75.40
2022-08-05T17:32:39.441Z,75.80
2022-08-05T17:35:12.314Z,76.60
2022-08-05T17:37:45.234Z,76.00
2022-08-05T17:40:15.997Z,76.40
2022-08-05T17:42:51.439Z,76.50
2022-08-05T17:45:22.656Z,76.70
2022-08-05T17:47:54.905Z,77.10
2022-08-05T17:50:29.603Z,77.10
2022-08-05T17:52:59.439Z,77.40
2022-08-05T17:55:37.686Z,77.20
2022-08-05T17:58:09.711Z,76.90
2022-08-05T18:00:45.307Z,77.00
2022-08-05T18:03:55.857Z,76.90
2022-08-05T18:06:11.153Z,76.90
2022-08-05T18:08:44.460Z,76.60
2022-08-05T18:11:24.439Z,76.90
2022-08-05T18:14:03.173Z,76.90
2022-08-05T18:16:33.206Z,77.40
2022-08-05T18:19:00.700Z,77.60
2022-08-05T18:22:09.353Z,77.30
2022-08-05T18:24:15.833Z,78.10
2022-08-05T18:26:43.760Z,78.30
2022-08-05T18:29:11.699Z,78.30
2022-08-05T18:31:43.089Z,78.80
2022-08-05T18:34:12.630Z,77.90
2022-08-05T18:36:41.346Z,77.80
2022-08-05T18:39:41.962Z,77.90
2022-08-05T18:42:06.078Z,78.00
2022-08-05T18:44:55.327Z,78.00
2022-08-05T18:47:26.727Z,78.10
2022-08-05T18:50:13.497Z,78.00
2022-08-05T18:52:50.542Z,78.60
2022-08-05T18:55:20.294Z,79.20
2022-08-05T18:57:53.436Z,79.00
2022-08-05T19:00:29.058Z,79.50
2022-08-05T19:03:04.069Z,79.90
2022-08-05T19:06:13.288Z,79.70
2022-08-05T19:08:21.666Z,79.70
2022-08-05T19:10:50.435Z,79.80
2022-08-05T19:13:19.866Z,79.70
2022-08-05T19:16:00.189Z,80.50
2022-08-05T19:18:31.893Z,80.20
2022-08-05T19:20:59.779Z,80.40
2022-08-05T19:24:05.239Z,80.50
2022-08-05T19:26:16.608Z,80.90
2022-08-05T19:28:44.527Z,80.60
2022-08-05T19:31:12.941Z,80.70
2022-08-05T19:33:48.301Z,81.50
2022-08-05T19:36:29.417Z,82.40
2022-08-05T19:39:01.171Z,82.70
2022-08-05T19:42:05.519Z,83.20
2022-08-05T19:44:19.265Z,83.50
2022-08-05T19:46:46.879Z,84.20
2022-08-05T19:49:17.048Z,84.60
2022-08-05T19:52:04.588Z,85.30
2022-08-05T19:54:34.920Z,85.50
2022-08-05T19:57:06.715Z,86.20
2022-08-05T19:59:55.339Z,86.10
2022-08-05T20:02:26.978Z,86.50
2022-08-05T20:04:58.726Z,86.50
2022-08-05T20:07:48.550Z,87.00
2022-08-05T20:10:19.406Z,87.00
2022-08-05T20:12:50.009Z,86.90
2022-08-05T20:15:47.931Z,87.30
2022-08-05T20:18:10.652Z,87.20
2022-08-05T20:20:56.186Z,87.30
2022-08-05T20:23:44.492Z,87.10
2022-08-05T20:26:15.251Z,87.00
2022-08-05T20:28:50.245Z,87.30
2022-08-05T20:31:21.848Z,87.40
2022-08-05T20:33:51.429Z,87.30
2022-08-05T20:36:19.840Z,87.30
2022-08-05T20:38:53.438Z,87.50
2022-08-05T20:41:27.378Z,87.90
2022-08-05T20:44:19.274Z,87.50
2022-08-05T20:46:59.773Z,87.50
2022-08-05T20:49:28.162Z,87.50
2022-08-05T20:51:57.382Z,88.10
2022-08-05T20:54:55.218Z,87.50
2022-08-05T20:57:42.754Z,88.20
2022-08-05T21:00:21.338Z,87.50
2022-08-05T21:02:56.918Z,88.10
2022-08-05T21:05:24.950Z,87.90
2022-08-05T21:07:52.630Z,88.10
2022-08-05T21:10:21.558Z,87.80
2022-08-05T21:12:57.594Z,88.10
2022-08-05T21:15:33.903Z,88.20
2022-08-05T21:18:01.978Z,88.30
2022-08-05T21:20:32.912Z,88.10
2022-08-05T21:23:01.227Z,88.30
2022-08-05T21:25:34.114Z,88.20
2022-08-05T21:28:03.246Z,88.30
2022-08-05T21:30:31.706Z,88.80
2022-08-05T21:33:01.600Z,88.70
2022-08-05T21:35:43.835Z,88.90
2022-08-05T21:38:19.308Z,89.00
2022-08-05T21:40:46.738Z,89.30
2022-08-05T21:43:24.059Z,89.50
2022-08-05T21:45:56.401Z,89.70
2022-08-05T21:48:25.115Z,89.80
2022-08-05T21:50:54.250Z,90.00
2022-08-05T21:53:24.867Z,90.00
2022-08-05T21:56:09.682Z,90.20
2022-08-05T21:58:42.045Z,90.20
2022-08-05T22:01:10.615Z,90.20
2022-08-05T22:03:48.521Z,90.40
2022-08-05T22:06:22.827Z,90.60
2022-08-05T22:09:13.721Z,90.60
2022-08-05T22:11:47.095Z,90.60
2022-08-05T22:14:34.176Z,90.60
2022-08-05T22:17:06.882Z,90.70
2022-08-05T22:19:57.431Z,90.80
2022-08-05T22:22:27.798Z,90.90
2022-08-05T22:25:21.585Z,90.90
2022-08-05T22:28:11.056Z,90.90
2022-08-05T22:30:43.954Z,91.00
2022-08-05T22:33:57.134Z,91.20
2022-08-05T22:36:15.719Z,91.20
2022-08-05T22:38:48.358Z,91.30
2022-08-05T22:42:05.481Z,91.40
2022-08-05T22:44:07.959Z,91.30
2022-08-05T22:46:39.757Z,91.40
2022-08-05T22:49:12.443Z,91.40
2022-08-05T22:52:04.875Z,91.40
2022-08-05T22:54:36.353Z,91.60
2022-08-05T22:57:05.841Z,91.70
2022-08-05T22:59:42.524Z,91.70
2022-08-05T23:02:29.003Z,91.60
2022-08-05T23:05:01.820Z,91.60
2022-08-05T23:07:32.759Z,91.70
2022-08-05T23:10:12.272Z,91.70
2022-08-05T23:12:39.821Z,91.70
2022-08-05T23:15:10.932Z,91.70
2022-08-05T23:18:00.127Z,91.80
2022-08-05T23:20:26.948Z,91.80
2022-08-05T23:22:56.002Z,91.90
2022-08-05T23:25:55.024Z,91.90
2022-08-05T23:28:12.356Z,92.00
2022-08-05T23:30:43.805Z,92.20
2022-08-05T23:33:25.688Z,92.20
2022-08-05T23:36:07.113Z,92.30
2022-08-05T23:38:39.298Z,92.40
2022-08-05T23:41:06.567Z,92.60
2022-08-05T23:44:02.840Z,92.80
2022-08-05T23:46:22.308Z,92.80
2022-08-05T23:49:01.143Z,93.10
2022-08-05T23:51:53.743Z,93.00
2022-08-05T23:54:30.480Z,93.10
2022-08-05T23:57:03.912Z,93.20
